sensor_id;sensor_type;location;lat;lon;timestamp;temperature;humidity
20398;DHT22;10358;49.590;11.030;2023-04-03T00:01:24;4.00;99.90
20398;DHT22;10358;49.590;11.030;2023-04-03T00:03:49;4.00;99.90
20398;DHT22;10358;49.590;11.030;2023-04-03T00:06:15;3.90;99.90
20398;DHT22;10358;49.590;11.030;2023-04-03T00:08:41;3.90;99.90
20398;DHT22;10358;49.590;11.030;2023-04-03T00:11:07;3.90;99.90
20398;DHT22;10358;49.590;11.030;2023-04-03T00:13:33;3.90;99.90
20398;DHT22;10358;49.590;11.030;2023-04-03T00:15:59;3.90;99.90
20398;DHT22;10358;49.590;11.030;2023-04-03T00:18:25;3.90;99.90
20398;DHT22;10358;49.590;11.030;2023-04-03T00:20:50;3.80;99.90
20398;DHT22;10358;49.590;11.030;2023-04-03T00:23:16;3.80;99.90
20398;DHT22;10358;49.590;11.030;2023-04-03T00:25:42;3.80;99.90
20398;DHT22;10358;49.590;11.030;2023-04-03T00:28:08;3.80;99.90
20398;DHT22;10358;49.590;11.030;2023-04-03T00:30:34;3.70;99.90
20398;DHT22;10358;49.590;11.030;2023-04-03T00:33:00;3.70;99.90
20398;DHT22;10358;49.590;11.030;2023-04-03T00:35:26;3.60;99.90
20398;DHT22;10358;49.590;11.030;2023-04-03T00:37:53;3.60;99.90
20398;DHT22;10358;49.590;11.030;2023-04-03T00:40:21;3.60;99.90
20398;DHT22;10358;49.590;11.030;2023-04-03T00:42:48;3.60;99.90
20398;DHT22;10358;49.590;11.030;2023-04-03T00:45:36;3.50;99.90
20398;DHT22;10358;49.590;11.030;2023-04-03T00:48:04;3.50;99.90
20398;DHT22;10358;49.590;11.030;2023-04-03T00:50:31;3.50;99.90
20398;DHT22;10358;49.590;11.030;2023-04-03T00:52:58;3.50;99.90
20398;DHT22;10358;49.590;11.030;2023-04-03T00:55:24;3.40;99.90
20398;DHT22;10358;49.590;11.030;2023-04-03T00:57:51;3.40;99.90
20398;DHT22;10358;49.590;11.030;2023-04-03T01:00:19;3.40;99.90
20398;DHT22;10358;49.590;11.030;2023-04-03T01:02:45;3.40;99.90
20398;DHT22;10358;49.590;11.030;2023-04-03T01:05:11;3.40;99.90
20398;DHT22;10358;49.590;11.030;2023-04-03T01:07:38;3.40;99.90
20398;DHT22;10358;49.590;11.030;2023-04-03T01:10:08;3.40;99.90
20398;DHT22;10358;49.590;11.030;2023-04-03T01:12:39;3.30;99.90
20398;DHT22;10358;49.590;11.030;2023-04-03T01:15:18;3.30;99.90
20398;DHT22;10358;49.590;11.030;2023-04-03T01:17:47;3.20;99.90
20398;DHT22;10358;49.590;11.030;2023-04-03T01:25:27;3.10;99.90
20398;DHT22;10358;49.590;11.030;2023-04-03T01:27:53;3.10;99.90
20398;DHT22;10358;49.590;11.030;2023-04-03T01:30:21;3.00;99.90
20398;DHT22;10358;49.590;11.030;2023-04-03T01:32:49;3.00;99.90
20398;DHT22;10358;49.590;11.030;2023-04-03T01:35:14;3.00;99.90
20398;DHT22;10358;49.590;11.030;2023-04-03T01:37:40;2.90;99.90
20398;DHT22;10358;49.590;11.030;2023-04-03T01:40:06;2.80;99.90
20398;DHT22;10358;49.590;11.030;2023-04-03T01:42:32;2.80;99.90
20398;DHT22;10358;49.590;11.030;2023-04-03T01:44:58;2.80;99.90
20398;DHT22;10358;49.590;11.030;2023-04-03T01:47:23;2.90;99.90
20398;DHT22;10358;49.590;11.030;2023-04-03T01:49:49;2.80;99.90
20398;DHT22;10358;49.590;11.030;2023-04-03T01:52:14;2.80;99.90
20398;DHT22;10358;49.590;11.030;2023-04-03T01:54:40;2.70;99.90
20398;DHT22;10358;49.590;11.030;2023-04-03T01:57:05;2.70;99.90
20398;DHT22;10358;49.590;11.030;2023-04-03T01:59:31;2.70;99.90
20398;DHT22;10358;49.590;11.030;2023-04-03T02:01:57;2.70;99.90
20398;DHT22;10358;49.590;11.030;2023-04-03T02:04:22;2.70;99.90
20398;DHT22;10358;49.590;11.030;2023-04-03T02:06:48;2.60;99.90
20398;DHT22;10358;49.590;11.030;2023-04-03T02:09:14;2.60;99.90
20398;DHT22;10358;49.590;11.030;2023-04-03T02:11:40;2.60;99.90
20398;DHT22;10358;49.590;11.030;2023-04-03T02:14:05;2.60;99.90
20398;DHT22;10358;49.590;11.030;2023-04-03T02:16:31;2.60;99.90
20398;DHT22;10358;49.590;11.030;2023-04-03T02:18:57;2.60;99.90
20398;DHT22;10358;49.590;11.030;2023-04-03T02:21:23;2.60;99.90
20398;DHT22;10358;49.590;11.030;2023-04-03T02:23:48;2.60;99.90
20398;DHT22;10358;49.590;11.030;2023-04-03T02:26:15;2.60;99.90
20398;DHT22;10358;49.590;11.030;2023-04-03T02:28:41;2.60;99.90
20398;DHT22;10358;49.590;11.030;2023-04-03T02:31:08;2.60;99.90
20398;DHT22;10358;49.590;11.030;2023-04-03T02:33:34;2.60;99.90
20398;DHT22;10358;49.590;11.030;2023-04-03T02:36:06;2.60;99.90
20398;DHT22;10358;49.590;11.030;2023-04-03T02:38:32;2.60;99.90
20398;DHT22;10358;49.590;11.030;2023-04-03T02:41:02;2.70;99.90
20398;DHT22;10358;49.590;11.030;2023-04-03T02:43:27;2.70;99.90
20398;DHT22;10358;49.590;11.030;2023-04-03T02:45:53;2.70;99.90
20398;DHT22;10358;49.590;11.030;2023-04-03T02:48:18;2.80;99.90
20398;DHT22;10358;49.590;11.030;2023-04-03T02:50:44;2.80;99.90
20398;DHT22;10358;49.590;11.030;2023-04-03T02:53:09;2.80;99.90
20398;DHT22;10358;49.590;11.030;2023-04-03T02:55:35;2.80;99.90
20398;DHT22;10358;49.590;11.030;2023-04-03T02:58:01;2.80;99.90
20398;DHT22;10358;49.590;11.030;2023-04-03T03:00:26;2.90;99.90
20398;DHT22;10358;49.590;11.030;2023-04-03T03:02:52;2.90;99.90
20398;DHT22;10358;49.590;11.030;2023-04-03T03:05:17;2.90;99.90
20398;DHT22;10358;49.590;11.030;2023-04-03T03:07:43;2.90;99.90
20398;DHT22;10358;49.590;11.030;2023-04-03T03:10:09;2.90;99.90
20398;DHT22;10358;49.590;11.030;2023-04-03T03:12:34;2.90;99.90
20398;DHT22;10358;49.590;11.030;2023-04-03T03:15:00;2.90;99.90
20398;DHT22;10358;49.590;11.030;2023-04-03T03:17:26;2.90;99.90
20398;DHT22;10358;49.590;11.030;2023-04-03T03:19:51;2.90;99.90
20398;DHT22;10358;49.590;11.030;2023-04-03T03:22:17;2.90;99.90
20398;DHT22;10358;49.590;11.030;2023-04-03T03:24:42;2.90;99.90
20398;DHT22;10358;49.590;11.030;2023-04-03T03:27:08;3.00;99.90
20398;DHT22;10358;49.590;11.030;2023-04-03T03:29:33;2.90;99.90
20398;DHT22;10358;49.590;11.030;2023-04-03T03:31:59;2.90;99.90
20398;DHT22;10358;49.590;11.030;2023-04-03T03:34:25;2.90;99.90
20398;DHT22;10358;49.590;11.030;2023-04-03T03:36:50;2.90;99.90
20398;DHT22;10358;49.590;11.030;2023-04-03T03:39:16;2.90;99.90
20398;DHT22;10358;49.590;11.030;2023-04-03T03:41:41;2.90;99.90
20398;DHT22;10358;49.590;11.030;2023-04-03T03:44:07;2.80;99.90
20398;DHT22;10358;49.590;11.030;2023-04-03T03:46:32;2.80;99.90
20398;DHT22;10358;49.590;11.030;2023-04-03T03:48:58;2.80;99.90
20398;DHT22;10358;49.590;11.030;2023-04-03T03:51:24;2.80;99.90
20398;DHT22;10358;49.590;11.030;2023-04-03T03:53:50;2.80;99.90
20398;DHT22;10358;49.590;11.030;2023-04-03T03:56:15;2.70;99.90
20398;DHT22;10358;49.590;11.030;2023-04-03T03:58:41;2.80;99.90
20398;DHT22;10358;49.590;11.030;2023-04-03T04:01:06;2.80;99.90
20398;DHT22;10358;49.590;11.030;2023-04-03T04:03:32;2.70;99.90
20398;DHT22;10358;49.590;11.030;2023-04-03T04:05:58;2.70;99.90
20398;DHT22;10358;49.590;11.030;2023-04-03T04:08:24;2.60;99.90
20398;DHT22;10358;49.590;11.030;2023-04-03T04:10:50;2.60;99.90
20398;DHT22;10358;49.590;11.030;2023-04-03T04:13:15;2.60;99.90
20398;DHT22;10358;49.590;11.030;2023-04-03T04:15:42;2.60;99.90
20398;DHT22;10358;49.590;11.030;2023-04-03T04:18:08;2.60;99.90
20398;DHT22;10358;49.590;11.030;2023-04-03T04:20:33;2.50;99.90
20398;DHT22;10358;49.590;11.030;2023-04-03T04:22:59;2.40;99.90
20398;DHT22;10358;49.590;11.030;2023-04-03T04:25:24;2.50;99.90
20398;DHT22;10358;49.590;11.030;2023-04-03T04:27:50;2.30;99.90
20398;DHT22;10358;49.590;11.030;2023-04-03T04:30:16;2.30;99.90
20398;DHT22;10358;49.590;11.030;2023-04-03T04:32:41;2.30;99.90
20398;DHT22;10358;49.590;11.030;2023-04-03T04:35:07;2.30;99.90
20398;DHT22;10358;49.590;11.030;2023-04-03T04:37:33;2.20;99.90
20398;DHT22;10358;49.590;11.030;2023-04-03T04:39:58;2.10;99.90
20398;DHT22;10358;49.590;11.030;2023-04-03T04:42:24;2.10;99.90
20398;DHT22;10358;49.590;11.030;2023-04-03T04:44:49;2.10;99.90
20398;DHT22;10358;49.590;11.030;2023-04-03T04:47:16;2.10;99.90
20398;DHT22;10358;49.590;11.030;2023-04-03T04:49:41;2.00;99.90
20398;DHT22;10358;49.590;11.030;2023-04-03T04:52:07;2.00;99.90
20398;DHT22;10358;49.590;11.030;2023-04-03T04:54:33;2.00;99.90
20398;DHT22;10358;49.590;11.030;2023-04-03T04:56:58;2.00;99.90
20398;DHT22;10358;49.590;11.030;2023-04-03T04:59:24;2.00;99.90
20398;DHT22;10358;49.590;11.030;2023-04-03T05:01:49;1.90;99.90
20398;DHT22;10358;49.590;11.030;2023-04-03T05:04:16;1.90;99.90
20398;DHT22;10358;49.590;11.030;2023-04-03T05:06:41;1.90;99.90
20398;DHT22;10358;49.590;11.030;2023-04-03T05:09:07;1.90;99.90
20398;DHT22;10358;49.590;11.030;2023-04-03T05:11:32;1.90;99.90
20398;DHT22;10358;49.590;11.030;2023-04-03T05:13:58;1.80;99.90
20398;DHT22;10358;49.590;11.030;2023-04-03T05:16:24;1.80;99.90
20398;DHT22;10358;49.590;11.030;2023-04-03T05:18:50;1.80;99.90
20398;DHT22;10358;49.590;11.030;2023-04-03T05:21:16;1.70;99.90
20398;DHT22;10358;49.590;11.030;2023-04-03T05:23:43;1.80;99.90
20398;DHT22;10358;49.590;11.030;2023-04-03T05:26:09;1.90;99.90
20398;DHT22;10358;49.590;11.030;2023-04-03T05:28:34;1.80;99.90
20398;DHT22;10358;49.590;11.030;2023-04-03T05:31:00;1.80;99.90
20398;DHT22;10358;49.590;11.030;2023-04-03T05:33:26;1.80;99.90
20398;DHT22;10358;49.590;11.030;2023-04-03T05:35:52;1.80;99.90
20398;DHT22;10358;49.590;11.030;2023-04-03T05:38:18;1.90;99.90
20398;DHT22;10358;49.590;11.030;2023-04-03T05:40:44;1.90;99.90
20398;DHT22;10358;49.590;11.030;2023-04-03T05:43:09;2.00;99.90
20398;DHT22;10358;49.590;11.030;2023-04-03T05:45:35;2.10;99.90
20398;DHT22;10358;49.590;11.030;2023-04-03T05:48:01;2.10;99.90
20398;DHT22;10358;49.590;11.030;2023-04-03T05:50:26;2.20;99.90
20398;DHT22;10358;49.590;11.030;2023-04-03T05:52:55;2.30;99.90
20398;DHT22;10358;49.590;11.030;2023-04-03T05:55:22;2.40;99.90
20398;DHT22;10358;49.590;11.030;2023-04-03T05:57:47;2.50;99.90
20398;DHT22;10358;49.590;11.030;2023-04-03T06:00:14;2.60;99.90
20398;DHT22;10358;49.590;11.030;2023-04-03T06:02:43;2.70;99.90
20398;DHT22;10358;49.590;11.030;2023-04-03T06:05:09;2.70;99.90
20398;DHT22;10358;49.590;11.030;2023-04-03T06:07:36;2.70;99.90
20398;DHT22;10358;49.590;11.030;2023-04-03T06:10:03;2.80;99.90
20398;DHT22;10358;49.590;11.030;2023-04-03T06:12:29;2.80;99.90
20398;DHT22;10358;49.590;11.030;2023-04-03T06:14:55;2.90;99.90
20398;DHT22;10358;49.590;11.030;2023-04-03T06:17:20;3.00;99.90
20398;DHT22;10358;49.590;11.030;2023-04-03T06:19:46;3.10;99.90
20398;DHT22;10358;49.590;11.030;2023-04-03T06:22:13;3.10;99.90
20398;DHT22;10358;49.590;11.030;2023-04-03T06:24:39;3.20;99.90
20398;DHT22;10358;49.590;11.030;2023-04-03T06:27:04;3.30;99.90
20398;DHT22;10358;49.590;11.030;2023-04-03T06:29:30;3.30;99.90
20398;DHT22;10358;49.590;11.030;2023-04-03T06:31:56;3.20;99.90
20398;DHT22;10358;49.590;11.030;2023-04-03T06:34:22;3.20;99.90
20398;DHT22;10358;49.590;11.030;2023-04-03T06:36:48;3.20;99.90
20398;DHT22;10358;49.590;11.030;2023-04-03T06:39:19;3.20;99.90
20398;DHT22;10358;49.590;11.030;2023-04-03T06:41:46;3.20;99.90
20398;DHT22;10358;49.590;11.030;2023-04-03T06:44:12;3.10;99.90
20398;DHT22;10358;49.590;11.030;2023-04-03T06:46:39;3.10;99.90
20398;DHT22;10358;49.590;11.030;2023-04-03T06:49:05;3.10;99.90
20398;DHT22;10358;49.590;11.030;2023-04-03T06:51:33;3.20;99.90
20398;DHT22;10358;49.590;11.030;2023-04-03T06:54:00;3.20;99.90
20398;DHT22;10358;49.590;11.030;2023-04-03T06:56:26;3.20;99.90
20398;DHT22;10358;49.590;11.030;2023-04-03T06:58:53;3.30;99.90
20398;DHT22;10358;49.590;11.030;2023-04-03T07:01:24;3.40;99.90
20398;DHT22;10358;49.590;11.030;2023-04-03T07:03:51;3.30;99.90
20398;DHT22;10358;49.590;11.030;2023-04-03T07:06:18;3.40;99.90
20398;DHT22;10358;49.590;11.030;2023-04-03T07:08:44;3.30;99.90
20398;DHT22;10358;49.590;11.030;2023-04-03T07:11:10;3.30;99.90
20398;DHT22;10358;49.590;11.030;2023-04-03T07:13:36;3.40;99.90
20398;DHT22;10358;49.590;11.030;2023-04-03T07:16:03;3.50;99.90
20398;DHT22;10358;49.590;11.030;2023-04-03T07:18:30;3.50;99.90
20398;DHT22;10358;49.590;11.030;2023-04-03T07:20:56;3.50;99.90
20398;DHT22;10358;49.590;11.030;2023-04-03T07:23:22;3.60;99.90
20398;DHT22;10358;49.590;11.030;2023-04-03T07:25:49;3.60;99.90
20398;DHT22;10358;49.590;11.030;2023-04-03T07:28:16;3.70;99.90
20398;DHT22;10358;49.590;11.030;2023-04-03T07:30:47;3.70;99.90
20398;DHT22;10358;49.590;11.030;2023-04-03T07:33:14;3.80;99.90
20398;DHT22;10358;49.590;11.030;2023-04-03T07:35:41;3.80;99.90
20398;DHT22;10358;49.590;11.030;2023-04-03T07:38:07;4.00;99.90
20398;DHT22;10358;49.590;11.030;2023-04-03T07:40:33;4.00;99.90
20398;DHT22;10358;49.590;11.030;2023-04-03T07:42:59;4.10;99.90
20398;DHT22;10358;49.590;11.030;2023-04-03T07:45:25;4.10;99.90
20398;DHT22;10358;49.590;11.030;2023-04-03T07:47:51;4.00;99.90
20398;DHT22;10358;49.590;11.030;2023-04-03T07:50:17;4.10;99.90
20398;DHT22;10358;49.590;11.030;2023-04-03T07:52:42;4.10;99.90
20398;DHT22;10358;49.590;11.030;2023-04-03T07:55:08;4.10;99.90
20398;DHT22;10358;49.590;11.030;2023-04-03T07:57:34;4.20;99.90
20398;DHT22;10358;49.590;11.030;2023-04-03T08:00:00;4.30;99.90
20398;DHT22;10358;49.590;11.030;2023-04-03T08:02:26;4.50;99.90
20398;DHT22;10358;49.590;11.030;2023-04-03T08:04:52;4.40;99.90
20398;DHT22;10358;49.590;11.030;2023-04-03T08:07:17;4.40;99.90
20398;DHT22;10358;49.590;11.030;2023-04-03T08:09:43;4.40;99.90
20398;DHT22;10358;49.590;11.030;2023-04-03T08:12:09;4.50;99.90
20398;DHT22;10358;49.590;11.030;2023-04-03T08:14:37;4.50;99.90
20398;DHT22;10358;49.590;11.030;2023-04-03T08:17:03;4.50;99.90
20398;DHT22;10358;49.590;11.030;2023-04-03T08:19:30;4.60;99.90
20398;DHT22;10358;49.590;11.030;2023-04-03T08:21:56;4.50;99.90
20398;DHT22;10358;49.590;11.030;2023-04-03T08:24:24;4.40;99.90
20398;DHT22;10358;49.590;11.030;2023-04-03T08:26:49;4.50;99.90
20398;DHT22;10358;49.590;11.030;2023-04-03T08:29:15;4.50;99.90
20398;DHT22;10358;49.590;11.030;2023-04-03T08:31:41;4.50;99.90
20398;DHT22;10358;49.590;11.030;2023-04-03T08:34:06;4.70;99.90
20398;DHT22;10358;49.590;11.030;2023-04-03T08:36:32;4.70;99.90
20398;DHT22;10358;49.590;11.030;2023-04-03T08:38:57;4.70;99.90
20398;DHT22;10358;49.590;11.030;2023-04-03T08:44:39;4.70;99.90
20398;DHT22;10358;49.590;11.030;2023-04-03T08:50:13;4.60;99.90
20398;DHT22;10358;49.590;11.030;2023-04-03T08:52:48;4.50;99.30
20398;DHT22;10358;49.590;11.030;2023-04-03T08:55:25;4.50;99.90
20398;DHT22;10358;49.590;11.030;2023-04-03T08:58:02;4.60;99.90
20398;DHT22;10358;49.590;11.030;2023-04-03T09:00:38;4.80;99.70
20398;DHT22;10358;49.590;11.030;2023-04-03T09:03:12;4.70;97.90
20398;DHT22;10358;49.590;11.030;2023-04-03T09:08:26;4.60;96.40
20398;DHT22;10358;49.590;11.030;2023-04-03T09:11:06;4.60;97.60
20398;DHT22;10358;49.590;11.030;2023-04-03T09:13:43;4.70;97.50
20398;DHT22;10358;49.590;11.030;2023-04-03T09:22:13;4.90;93.60
20398;DHT22;10358;49.590;11.030;2023-04-03T09:24:43;4.80;93.40
20398;DHT22;10358;49.590;11.030;2023-04-03T09:27:11;4.80;93.30
20398;DHT22;10358;49.590;11.030;2023-04-03T09:29:40;4.80;93.20
20398;DHT22;10358;49.590;11.030;2023-04-03T09:32:19;4.80;92.30
20398;DHT22;10358;49.590;11.030;2023-04-03T09:34:47;4.80;92.00
20398;DHT22;10358;49.590;11.030;2023-04-03T09:39:59;5.10;91.60
20398;DHT22;10358;49.590;11.030;2023-04-03T09:42:25;5.00;91.10
20398;DHT22;10358;49.590;11.030;2023-04-03T09:44:58;4.90;88.70
20398;DHT22;10358;49.590;11.030;2023-04-03T09:52:37;5.00;88.10
20398;DHT22;10358;49.590;11.030;2023-04-03T09:55:08;5.20;86.60
20398;DHT22;10358;49.590;11.030;2023-04-03T09:57:38;5.20;85.00
20398;DHT22;10358;49.590;11.030;2023-04-03T10:00:04;5.20;85.00
20398;DHT22;10358;49.590;11.030;2023-04-03T10:05:00;5.20;85.10
20398;DHT22;10358;49.590;11.030;2023-04-03T10:07:32;5.20;83.50
20398;DHT22;10358;49.590;11.030;2023-04-03T10:10:20;5.10;84.40
20398;DHT22;10358;49.590;11.030;2023-04-03T10:12:48;5.10;83.80
20398;DHT22;10358;49.590;11.030;2023-04-03T10:15:16;5.30;84.20
20398;DHT22;10358;49.590;11.030;2023-04-03T10:18:04;5.40;82.70
20398;DHT22;10358;49.590;11.030;2023-04-03T10:20:39;5.50;80.60
20398;DHT22;10358;49.590;11.030;2023-04-03T10:26:17;5.60;81.00
20398;DHT22;10358;49.590;11.030;2023-04-03T10:28:55;5.70;79.90
20398;DHT22;10358;49.590;11.030;2023-04-03T10:31:29;5.60;80.20
20398;DHT22;10358;49.590;11.030;2023-04-03T10:37:02;5.50;79.80
20398;DHT22;10358;49.590;11.030;2023-04-03T10:47:40;5.80;77.70
20398;DHT22;10358;49.590;11.030;2023-04-03T10:53:22;6.10;76.50
20398;DHT22;10358;49.590;11.030;2023-04-03T10:55:58;6.10;75.30
20398;DHT22;10358;49.590;11.030;2023-04-03T10:58:31;6.10;75.40
20398;DHT22;10358;49.590;11.030;2023-04-03T11:01:02;6.10;74.70
20398;DHT22;10358;49.590;11.030;2023-04-03T11:03:34;6.10;74.60
20398;DHT22;10358;49.590;11.030;2023-04-03T11:06:02;6.10;72.80
20398;DHT22;10358;49.590;11.030;2023-04-03T11:08:38;5.60;71.60
20398;DHT22;10358;49.590;11.030;2023-04-03T11:11:22;5.60;73.90
20398;DHT22;10358;49.590;11.030;2023-04-03T11:14:22;5.90;74.30
20398;DHT22;10358;49.590;11.030;2023-04-03T11:22:31;6.30;72.80
20398;DHT22;10358;49.590;11.030;2023-04-03T11:25:06;6.40;73.30
20398;DHT22;10358;49.590;11.030;2023-04-03T11:27:44;6.50;71.70
20398;DHT22;10358;49.590;11.030;2023-04-03T11:30:21;6.70;72.10
20398;DHT22;10358;49.590;11.030;2023-04-03T11:33:02;6.90;72.20
20398;DHT22;10358;49.590;11.030;2023-04-03T11:35:31;7.00;71.00
20398;DHT22;10358;49.590;11.030;2023-04-03T11:37:59;6.90;69.00
20398;DHT22;10358;49.590;11.030;2023-04-03T11:40:29;6.90;68.70
20398;DHT22;10358;49.590;11.030;2023-04-03T11:53:01;7.20;65.30
20398;DHT22;10358;49.590;11.030;2023-04-03T12:01:05;6.60;68.60
20398;DHT22;10358;49.590;11.030;2023-04-03T12:03:34;6.80;70.60
20398;DHT22;10358;49.590;11.030;2023-04-03T12:14:23;7.20;66.10
20398;DHT22;10358;49.590;11.030;2023-04-03T12:16:27;7.20;67.90
20398;DHT22;10358;49.590;11.030;2023-04-03T12:24:01;7.30;65.40
20398;DHT22;10358;49.590;11.030;2023-04-03T12:26:47;7.50;65.70
20398;DHT22;10358;49.590;11.030;2023-04-03T12:29:25;7.40;65.30
20398;DHT22;10358;49.590;11.030;2023-04-03T12:38:18;6.90;62.70
20398;DHT22;10358;49.590;11.030;2023-04-03T12:40:53;7.10;65.40
20398;DHT22;10358;49.590;11.030;2023-04-03T12:43:39;7.30;65.90
20398;DHT22;10358;49.590;11.030;2023-04-03T12:51:14;7.40;64.10
20398;DHT22;10358;49.590;11.030;2023-04-03T12:53:40;7.50;64.60
20398;DHT22;10358;49.590;11.030;2023-04-03T12:56:20;7.80;63.10
20398;DHT22;10358;49.590;11.030;2023-04-03T12:58:47;8.00;63.00
20398;DHT22;10358;49.590;11.030;2023-04-03T13:01:24;8.30;64.40
20398;DHT22;10358;49.590;11.030;2023-04-03T13:03:56;8.50;63.20
20398;DHT22;10358;49.590;11.030;2023-04-03T13:06:28;8.60;62.80
20398;DHT22;10358;49.590;11.030;2023-04-03T13:08:57;8.80;61.30
20398;DHT22;10358;49.590;11.030;2023-04-03T13:11:26;8.60;60.00
20398;DHT22;10358;49.590;11.030;2023-04-03T13:14:03;8.40;59.80
20398;DHT22;10358;49.590;11.030;2023-04-03T13:16:31;8.20;61.30
20398;DHT22;10358;49.590;11.030;2023-04-03T13:18:57;8.00;60.20
20398;DHT22;10358;49.590;11.030;2023-04-03T13:21:28;7.80;60.00
20398;DHT22;10358;49.590;11.030;2023-04-03T13:23:59;7.80;61.80
20398;DHT22;10358;49.590;11.030;2023-04-03T13:26:28;8.30;63.30
20398;DHT22;10358;49.590;11.030;2023-04-03T13:29:14;8.70;60.70
20398;DHT22;10358;49.590;11.030;2023-04-03T13:31:43;8.80;60.00
20398;DHT22;10358;49.590;11.030;2023-04-03T13:34:17;9.00;58.80
20398;DHT22;10358;49.590;11.030;2023-04-03T13:36:54;8.90;58.10
20398;DHT22;10358;49.590;11.030;2023-04-03T13:39:29;8.80;58.20
20398;DHT22;10358;49.590;11.030;2023-04-03T13:41:59;8.40;56.90
20398;DHT22;10358;49.590;11.030;2023-04-03T13:44:33;7.90;58.80
20398;DHT22;10358;49.590;11.030;2023-04-03T13:49:41;8.90;59.60
20398;DHT22;10358;49.590;11.030;2023-04-03T13:52:32;9.20;58.40
20398;DHT22;10358;49.590;11.030;2023-04-03T13:55:14;9.30;58.30
20398;DHT22;10358;49.590;11.030;2023-04-03T13:57:53;9.10;59.30
20398;DHT22;10358;49.590;11.030;2023-04-03T14:00:47;8.70;61.40
20398;DHT22;10358;49.590;11.030;2023-04-03T14:06:06;8.90;64.20
20398;DHT22;10358;49.590;11.030;2023-04-03T14:08:32;9.00;63.40
20398;DHT22;10358;49.590;11.030;2023-04-03T14:10:58;9.30;60.40
20398;DHT22;10358;49.590;11.030;2023-04-03T14:13:23;9.40;57.90
20398;DHT22;10358;49.590;11.030;2023-04-03T14:15:49;9.60;56.40
20398;DHT22;10358;49.590;11.030;2023-04-03T14:18:17;9.50;54.20
20398;DHT22;10358;49.590;11.030;2023-04-03T14:20:44;9.70;54.50
20398;DHT22;10358;49.590;11.030;2023-04-03T14:23:10;9.80;54.50
20398;DHT22;10358;49.590;11.030;2023-04-03T14:25:36;10.10;54.20
20398;DHT22;10358;49.590;11.030;2023-04-03T14:28:16;10.30;53.50
20398;DHT22;10358;49.590;11.030;2023-04-03T14:30:43;10.30;53.40
20398;DHT22;10358;49.590;11.030;2023-04-03T14:33:13;10.30;52.70
20398;DHT22;10358;49.590;11.030;2023-04-03T14:35:40;10.20;52.60
20398;DHT22;10358;49.590;11.030;2023-04-03T14:40:44;10.10;52.50
20398;DHT22;10358;49.590;11.030;2023-04-03T14:43:10;9.70;52.40
20398;DHT22;10358;49.590;11.030;2023-04-03T14:45:38;9.50;53.20
20398;DHT22;10358;49.590;11.030;2023-04-03T14:48:04;9.30;53.00
20398;DHT22;10358;49.590;11.030;2023-04-03T14:50:31;9.10;53.90
20398;DHT22;10358;49.590;11.030;2023-04-03T14:52:58;9.30;53.90
20398;DHT22;10358;49.590;11.030;2023-04-03T14:55:25;9.40;53.00
20398;DHT22;10358;49.590;11.030;2023-04-03T14:57:51;9.50;53.50
20398;DHT22;10358;49.590;11.030;2023-04-03T15:00:20;9.70;53.50
20398;DHT22;10358;49.590;11.030;2023-04-03T15:02:46;9.90;52.60
20398;DHT22;10358;49.590;11.030;2023-04-03T15:05:14;10.20;52.50
20398;DHT22;10358;49.590;11.030;2023-04-03T15:07:41;10.40;52.00
20398;DHT22;10358;49.590;11.030;2023-04-03T15:10:26;9.80;50.10
20398;DHT22;10358;49.590;11.030;2023-04-03T15:12:52;9.70;52.70
20398;DHT22;10358;49.590;11.030;2023-04-03T15:15:19;9.70;52.80
20398;DHT22;10358;49.590;11.030;2023-04-03T15:17:47;9.80;52.50
20398;DHT22;10358;49.590;11.030;2023-04-03T15:20:19;9.80;52.70
20398;DHT22;10358;49.590;11.030;2023-04-03T15:22:45;9.90;52.10
20398;DHT22;10358;49.590;11.030;2023-04-03T15:25:10;10.00;52.50
20398;DHT22;10358;49.590;11.030;2023-04-03T15:27:37;9.90;51.20
20398;DHT22;10358;49.590;11.030;2023-04-03T15:30:10;9.70;51.80
20398;DHT22;10358;49.590;11.030;2023-04-03T15:32:36;9.40;52.70
20398;DHT22;10358;49.590;11.030;2023-04-03T15:35:02;9.30;52.70
20398;DHT22;10358;49.590;11.030;2023-04-03T15:37:28;9.60;53.90
20398;DHT22;10358;49.590;11.030;2023-04-03T15:39:53;9.80;52.30
20398;DHT22;10358;49.590;11.030;2023-04-03T15:42:19;9.60;52.00
20398;DHT22;10358;49.590;11.030;2023-04-03T15:44:45;9.10;51.20
20398;DHT22;10358;49.590;11.030;2023-04-03T15:47:10;9.30;52.40
20398;DHT22;10358;49.590;11.030;2023-04-03T15:49:36;9.90;51.10
20398;DHT22;10358;49.590;11.030;2023-04-03T15:52:03;11.00;48.00
20398;DHT22;10358;49.590;11.030;2023-04-03T15:54:28;12.00;46.20
20398;DHT22;10358;49.590;11.030;2023-04-03T15:56:55;13.10;43.80
20398;DHT22;10358;49.590;11.030;2023-04-03T15:59:21;13.60;42.40
20398;DHT22;10358;49.590;11.030;2023-04-03T16:01:47;14.10;42.30
20398;DHT22;10358;49.590;11.030;2023-04-03T16:04:13;14.30;40.90
20398;DHT22;10358;49.590;11.030;2023-04-03T16:06:40;14.10;39.30
20398;DHT22;10358;49.590;11.030;2023-04-03T16:09:06;14.00;41.20
20398;DHT22;10358;49.590;11.030;2023-04-03T16:11:32;14.30;39.70
20398;DHT22;10358;49.590;11.030;2023-04-03T16:13:57;13.70;39.80
20398;DHT22;10358;49.590;11.030;2023-04-03T16:16:23;13.80;41.30
20398;DHT22;10358;49.590;11.030;2023-04-03T16:18:49;13.60;39.90
20398;DHT22;10358;49.590;11.030;2023-04-03T16:21:16;13.50;39.30
20398;DHT22;10358;49.590;11.030;2023-04-03T16:23:43;13.30;40.00
20398;DHT22;10358;49.590;11.030;2023-04-03T16:26:09;13.50;39.60
20398;DHT22;10358;49.590;11.030;2023-04-03T16:28:34;13.30;40.00
20398;DHT22;10358;49.590;11.030;2023-04-03T16:31:01;13.40;40.00
20398;DHT22;10358;49.590;11.030;2023-04-03T16:33:27;12.80;40.80
20398;DHT22;10358;49.590;11.030;2023-04-03T16:35:52;12.60;41.90
20398;DHT22;10358;49.590;11.030;2023-04-03T16:38:18;12.20;42.40
20398;DHT22;10358;49.590;11.030;2023-04-03T16:40:45;11.60;43.60
20398;DHT22;10358;49.590;11.030;2023-04-03T16:43:11;11.00;44.60
20398;DHT22;10358;49.590;11.030;2023-04-03T16:45:37;10.80;46.00
20398;DHT22;10358;49.590;11.030;2023-04-03T16:48:03;10.70;45.70
20398;DHT22;10358;49.590;11.030;2023-04-03T16:50:28;10.50;45.70
20398;DHT22;10358;49.590;11.030;2023-04-03T16:52:54;10.60;46.40
20398;DHT22;10358;49.590;11.030;2023-04-03T16:55:20;10.50;46.40
20398;DHT22;10358;49.590;11.030;2023-04-03T16:57:46;10.20;47.10
20398;DHT22;10358;49.590;11.030;2023-04-03T17:00:12;10.00;47.30
20398;DHT22;10358;49.590;11.030;2023-04-03T17:02:39;9.80;46.80
20398;DHT22;10358;49.590;11.030;2023-04-03T17:05:05;9.70;47.90
20398;DHT22;10358;49.590;11.030;2023-04-03T17:07:31;9.60;47.40
20398;DHT22;10358;49.590;11.030;2023-04-03T17:09:57;9.50;47.10
20398;DHT22;10358;49.590;11.030;2023-04-03T17:12:22;9.40;47.30
20398;DHT22;10358;49.590;11.030;2023-04-03T17:14:48;9.40;47.40
20398;DHT22;10358;49.590;11.030;2023-04-03T17:17:14;9.30;47.40